Saga Sapphire — 9HOF8 — position and weather

sailwx.info

Track history (hours):
 
Tides and Currents Weather Stations Pressure Air Temp Water Temp Dewpoint Dewpoint Depression Visibility Wind Speed Wind Dir Waves Ship Positions

Saga Sapphire

Last reported at 2016-Dec-02 11:26 UTC. Time now 2016-Dec-02 18:05 UTC.
Position N 47°29' W 006°24'.

Length 200 m; draft 8.4 m.

Type: Ship. MMSI: 256208000.

Date/timePositionNaut miles runAvg speedWind from/ knotsBaromVisibWave heightAir tempDewpointWater temp
2016-Dec-02 11:26N 47°29' W 006°24'1717.3
2016-Dec-02 10:25N 47°44' W 006°09'1517.7
2016-Dec-02 09:33N 47°57' W 005°57'3517.6
2016-Dec-02 07:33N 48°26' W 005°29'1616.3
2016-Dec-02 06:33N 48°39' W 005°14'1515.3
2016-Dec-02 05:33N 48°50' W 004°57'3115.3
2016-Dec-02 03:30N 49°12' W 004°23'1916.4
2016-Dec-02 02:22N 49°26' W 004°05'1517.3
2016-Dec-02 01:31N 49°37' W 003°50'1717.6
2016-Dec-02 00:33N 49°49' W 003°32'1717.1
2016-Dec-01 23:33N 50°01' W 003°12'1616.1
2016-Dec-01 22:33N 50°12' W 002°53'712.9
2016-Dec-01 22:00N 50°12' W 002°42'920.4 350 / 51029.310.8 8.5 3.911.0
2016-Dec-01 21:34N 50°18' W 002°32'1814.1
2016-Dec-01 20:15N 50°26' W 002°06'1013.9
2016-Dec-01 19:33N 50°31' W 001°53'1414.2
2016-Dec-01 18:34N 50°40' W 001°36'1212.1
2016-Dec-01 17:34N 50°47' W 001°20'7 7.4
2016-Dec-01 16:33N 50°53' W 001°24'0 0.2
2016-Dec-01 15:32N 50°54' W 001°24'0 0.0
2016-Dec-01 14:31N 50°54' W 001°24'0 0.0
2016-Dec-01 13:31N 50°54' W 001°24'0 0.0
2016-Dec-01 12:29N 50°54' W 001°24'0 0.0
2016-Dec-01 11:33N 50°54' W 001°24'0 0.0
2016-Dec-01 10:31N 50°54' W 001°24'0 0.0
2016-Dec-01 09:31N 50°54' W 001°24'0 0.0
2016-Dec-01 08:31N 50°54' W 001°24'1 0.7
2016-Dec-01 07:33N 50°53' W 001°24'7 7.4
2016-Dec-01 06:33N 50°46' W 001°21'1515.3
2016-Dec-01 05:33N 50°36' W 001°40'2712.8
2016-Dec-01 03:27N 50°23' W 002°17'1112.5
2016-Dec-01 02:33N 50°18' W 002°33'1212.0
2016-Dec-01 01:33N 50°12' W 002°49'1212.1
2016-Dec-01 00:33N 50°06' W 003°05'1312.7
2016-Nov-30 23:33N 49°57' W 003°19'3 4.8
2016-Nov-30 23:00N 49°54' W 003°18'1225.9 040 / 71034.110.8 10.0 5.611.0
2016-Nov-30 22:31N 49°47' W 003°34'7414.9
2016-Nov-30 17:33N 48°54' W 004°52'1616.4
2016-Nov-30 16:33N 48°42' W 005°10'1717.1
2016-Nov-30 15:33N 48°29' W 005°26'25215.2
2016-Nov-29 23:00N 44°48' W 008°24'31814.0 040 / 161024.910.8 11.9 5.713.0
2016-Nov-29 00:12N 39°36' W 009°44'1015.3
2016-Nov-28 23:33N 39°26' W 009°44'1515.5
2016-Nov-28 22:33N 39°10' W 009°44'1515.2
2016-Nov-28 21:33N 38°55' W 009°44'1616.4
2016-Nov-28 20:33N 38°39' W 009°42'1515.1
2016-Nov-28 19:33N 38°37' W 009°23'1211.8
2016-Nov-28 18:33N 38°42' W 009°09'1 1.3
2016-Nov-28 17:33N 38°43' W 009°08'0 0.0
2016-Nov-28 16:31N 38°43' W 009°08'0 0.0
2016-Nov-28 15:32N 38°43' W 009°08'0 0.0
2016-Nov-28 14:33N 38°43' W 009°08'0 0.0
2016-Nov-28 13:28N 38°43' W 009°08'0 0.0
2016-Nov-28 12:33N 38°43' W 009°08'0 0.0
2016-Nov-28 11:33N 38°43' W 009°08'0 0.0
2016-Nov-28 10:33N 38°43' W 009°08'0 0.0
2016-Nov-28 09:30N 38°43' W 009°08'0 0.0
2016-Nov-28 08:30N 38°43' W 009°08'1 0.6
2016-Nov-28 07:33N 38°42' W 009°08'9 8.6
2016-Nov-28 06:33N 38°40' W 009°19'1313.0
2016-Nov-28 05:33N 38°30' W 009°30'1313.2
2016-Nov-28 04:34N 38°22' W 009°43'  
2016-Nov-24 21:26N 28°41' W 016°02'910.2
2016-Nov-24 20:33N 28°32' W 016°02'1110.6
2016-Nov-24 19:32N 28°23' W 016°08'8 6.4
2016-Nov-24 18:15N 28°28' W 016°14'0 0.0
2016-Nov-24 16:31N 28°28' W 016°14'0 0.0
2016-Nov-24 13:22N 28°28' W 016°14'0 0.0
2016-Nov-24 12:25N 28°28' W 016°14'0 0.0
2016-Nov-24 11:25N 28°28' W 016°14'0 0.0
2016-Nov-24 10:25N 28°28' W 016°14'0 0.0
2016-Nov-24 09:25N 28°28' W 016°14'0 0.0
2016-Nov-24 07:32N 28°28' W 016°14'  
Track history (hours):
 
Tides and Currents Weather Stations Pressure Air Temp Water Temp Dewpoint Dewpoint Depression Visibility Wind Speed Wind Dir Waves Ship Positions

Saga Sapphire

Last reported at 2016-Dec-02 11:26 UTC. Time now 2016-Dec-02 18:05 UTC.
Position N 47°29' W 006°24'.

Length 200 m; draft 8.4 m.

Type: Ship. MMSI: 256208000.

Date/timePositionNaut miles runAvg speedWind from/ knotsBaromVisibWave heightAir tempDewpointWater temp
2016-Dec-02 11:26N 47°29' W 006°24'1717.3
2016-Dec-02 10:25N 47°44' W 006°09'1517.7
2016-Dec-02 09:33N 47°57' W 005°57'3517.6
2016-Dec-02 07:33N 48°26' W 005°29'1616.3
2016-Dec-02 06:33N 48°39' W 005°14'1515.3
2016-Dec-02 05:33N 48°50' W 004°57'3115.3
2016-Dec-02 03:30N 49°12' W 004°23'1916.4
2016-Dec-02 02:22N 49°26' W 004°05'1517.3
2016-Dec-02 01:31N 49°37' W 003°50'1717.6
2016-Dec-02 00:33N 49°49' W 003°32'1717.1
2016-Dec-01 23:33N 50°01' W 003°12'1616.1
2016-Dec-01 22:33N 50°12' W 002°53'712.9
2016-Dec-01 22:00N 50°12' W 002°42'920.4 350 / 51029.310.8 8.5 3.911.0
2016-Dec-01 21:34N 50°18' W 002°32'1814.1
2016-Dec-01 20:15N 50°26' W 002°06'1013.9
2016-Dec-01 19:33N 50°31' W 001°53'1414.2
2016-Dec-01 18:34N 50°40' W 001°36'1212.1
2016-Dec-01 17:34N 50°47' W 001°20'7 7.4
2016-Dec-01 16:33N 50°53' W 001°24'0 0.2
2016-Dec-01 15:32N 50°54' W 001°24'0 0.0
2016-Dec-01 14:31N 50°54' W 001°24'0 0.0
2016-Dec-01 13:31N 50°54' W 001°24'0 0.0
2016-Dec-01 12:29N 50°54' W 001°24'0 0.0
2016-Dec-01 11:33N 50°54' W 001°24'0 0.0
2016-Dec-01 10:31N 50°54' W 001°24'0 0.0
2016-Dec-01 09:31N 50°54' W 001°24'0 0.0
2016-Dec-01 08:31N 50°54' W 001°24'1 0.7
2016-Dec-01 07:33N 50°53' W 001°24'7 7.4
2016-Dec-01 06:33N 50°46' W 001°21'1515.3
2016-Dec-01 05:33N 50°36' W 001°40'2712.8
2016-Dec-01 03:27N 50°23' W 002°17'1112.5
2016-Dec-01 02:33N 50°18' W 002°33'1212.0
2016-Dec-01 01:33N 50°12' W 002°49'1212.1
2016-Dec-01 00:33N 50°06' W 003°05'1312.7
2016-Nov-30 23:33N 49°57' W 003°19'3 4.8
2016-Nov-30 23:00N 49°54' W 003°18'1225.9 040 / 71034.110.8 10.0 5.611.0
2016-Nov-30 22:31N 49°47' W 003°34'7414.9
2016-Nov-30 17:33N 48°54' W 004°52'1616.4
2016-Nov-30 16:33N 48°42' W 005°10'1717.1
2016-Nov-30 15:33N 48°29' W 005°26'25215.2
2016-Nov-29 23:00N 44°48' W 008°24'31814.0 040 / 161024.910.8 11.9 5.713.0
2016-Nov-29 00:12N 39°36' W 009°44'1015.3
2016-Nov-28 23:33N 39°26' W 009°44'1515.5
2016-Nov-28 22:33N 39°10' W 009°44'1515.2
2016-Nov-28 21:33N 38°55' W 009°44'1616.4
2016-Nov-28 20:33N 38°39' W 009°42'1515.1
2016-Nov-28 19:33N 38°37' W 009°23'1211.8
2016-Nov-28 18:33N 38°42' W 009°09'1 1.3
2016-Nov-28 17:33N 38°43' W 009°08'0 0.0
2016-Nov-28 16:31N 38°43' W 009°08'0 0.0
2016-Nov-28 15:32N 38°43' W 009°08'0 0.0
2016-Nov-28 14:33N 38°43' W 009°08'0 0.0
2016-Nov-28 13:28N 38°43' W 009°08'0 0.0
2016-Nov-28 12:33N 38°43' W 009°08'0 0.0
2016-Nov-28 11:33N 38°43' W 009°08'0 0.0
2016-Nov-28 10:33N 38°43' W 009°08'0 0.0
2016-Nov-28 09:30N 38°43' W 009°08'0 0.0
2016-Nov-28 08:30N 38°43' W 009°08'1 0.6
2016-Nov-28 07:33N 38°42' W 009°08'9 8.6
2016-Nov-28 06:33N 38°40' W 009°19'1313.0
2016-Nov-28 05:33N 38°30' W 009°30'1313.2
2016-Nov-28 04:34N 38°22' W 009°43'  
2016-Nov-24 21:26N 28°41' W 016°02'910.2
2016-Nov-24 20:33N 28°32' W 016°02'1110.6
2016-Nov-24 19:32N 28°23' W 016°08'8 6.4
2016-Nov-24 18:15N 28°28' W 016°14'0 0.0
2016-Nov-24 16:31N 28°28' W 016°14'0 0.0
2016-Nov-24 13:22N 28°28' W 016°14'0 0.0
2016-Nov-24 12:25N 28°28' W 016°14'0 0.0
2016-Nov-24 11:25N 28°28' W 016°14'0 0.0
2016-Nov-24 10:25N 28°28' W 016°14'0 0.0
2016-Nov-24 09:25N 28°28' W 016°14'0 0.0
2016-Nov-24 07:32N 28°28' W 016°14'  

Dump ship's entire track history